createdAt,value
2023-03-17T00:01:56.170Z,21.00
2023-03-17T00:04:25.739Z,20.80
2023-03-17T00:06:53.874Z,20.60
2023-03-17T00:09:22.376Z,20.70
2023-03-17T00:11:50.333Z,21.00
2023-03-17T00:14:18.233Z,20.90
2023-03-17T00:16:49.706Z,20.70
2023-03-17T00:19:20.196Z,20.50
2023-03-17T00:21:48.082Z,20.70
2023-03-17T00:24:16.117Z,20.70
2023-03-17T00:26:43.732Z,21.10
2023-03-17T00:29:10.810Z,21.70
2023-03-17T00:31:38.631Z,22.20
2023-03-17T00:34:06.047Z,21.70
2023-03-17T00:36:34.377Z,21.20
2023-03-17T00:39:02.094Z,21.10
2023-03-17T00:41:29.767Z,20.90
2023-03-17T00:43:57.485Z,21.10
2023-03-17T00:46:28.539Z,20.70
2023-03-17T00:48:55.494Z,20.90
2023-03-17T00:51:23.554Z,21.50
2023-03-17T00:53:50.776Z,21.30
2023-03-17T00:56:21.138Z,21.90
2023-03-17T00:58:49.099Z,22.30
2023-03-17T01:01:16.693Z,22.30
2023-03-17T01:03:43.757Z,22.00
2023-03-17T01:06:15.303Z,22.40
2023-03-17T01:08:43.129Z,22.30
2023-03-17T01:11:19.034Z,22.10
2023-03-17T01:13:46.714Z,22.20
2023-03-17T01:16:15.639Z,21.90
2023-03-17T01:18:43.739Z,22.60
2023-03-17T01:21:11.055Z,23.00
2023-03-17T01:23:38.199Z,22.40
2023-03-17T01:26:06.732Z,22.80
2023-03-17T01:28:34.257Z,22.30
2023-03-17T01:31:02.892Z,22.10
2023-03-17T01:33:30.145Z,21.60
2023-03-17T01:35:57.614Z,21.60
2023-03-17T01:38:24.843Z,21.50
2023-03-17T01:40:53.639Z,21.50
2023-03-17T01:43:27.731Z,21.20
2023-03-17T01:46:34.197Z,21.00
2023-03-17T01:49:20.399Z,21.00
2023-03-17T01:52:02.865Z,21.10
2023-03-17T01:54:46.603Z,20.90
2023-03-17T01:57:23.412Z,20.60
2023-03-17T01:59:54.452Z,20.60
2023-03-17T02:02:26.182Z,20.80
2023-03-17T02:04:53.777Z,20.90
2023-03-17T02:07:22.281Z,20.70
2023-03-17T02:09:50.351Z,21.10
2023-03-17T02:12:17.457Z,21.20
2023-03-17T02:14:44.708Z,21.50
2023-03-17T02:17:13.607Z,21.20
2023-03-17T02:19:40.808Z,21.00
2023-03-17T02:22:08.328Z,21.10
2023-03-17T02:24:43.344Z,21.10
2023-03-17T02:27:34.966Z,21.10
2023-03-17T02:30:02.791Z,20.60
2023-03-17T02:32:29.921Z,20.90
2023-03-17T02:34:57.320Z,20.70
2023-03-17T02:37:24.351Z,20.80
2023-03-17T02:39:51.405Z,20.90
2023-03-17T02:42:19.731Z,20.50
2023-03-17T02:44:46.916Z,20.50
2023-03-17T02:47:14.377Z,20.70
2023-03-17T02:49:42.287Z,20.70
2023-03-17T02:52:09.471Z,20.70
2023-03-17T02:54:36.874Z,20.70
2023-03-17T02:57:04.389Z,20.70
2023-03-17T02:59:31.434Z,20.90
2023-03-17T03:01:58.441Z,20.80
2023-03-17T03:04:26.337Z,20.80
2023-03-17T03:06:54.187Z,21.10
2023-03-17T03:09:21.436Z,21.10
2023-03-17T03:11:48.496Z,21.20
2023-03-17T03:14:16.095Z,20.90
2023-03-17T03:16:45.315Z,21.20
2023-03-17T03:19:12.484Z,20.80
2023-03-17T03:21:40.790Z,21.00
2023-03-17T03:24:09.277Z,21.10
2023-03-17T03:26:36.262Z,21.40
2023-03-17T03:29:03.871Z,21.40
2023-03-17T03:31:31.022Z,21.50
2023-03-17T03:33:58.105Z,21.70
2023-03-17T03:36:26.913Z,21.80
2023-03-17T03:38:54.178Z,21.90
2023-03-17T03:41:22.623Z,21.60
2023-03-17T03:43:50.730Z,21.30
2023-03-17T03:46:17.838Z,20.80
2023-03-17T03:48:44.873Z,20.90
2023-03-17T03:51:11.944Z,21.00
2023-03-17T03:53:38.946Z,21.00
2023-03-17T03:56:06.508Z,21.20
2023-03-17T03:58:33.525Z,21.40
2023-03-17T04:01:05.067Z,20.90
2023-03-17T04:03:33.095Z,20.40
2023-03-17T04:06:00.965Z,20.80
2023-03-17T04:08:27.942Z,20.40
2023-03-17T04:10:55.018Z,20.80
2023-03-17T04:13:22.388Z,20.40
2023-03-17T04:15:49.560Z,20.60
2023-03-17T04:18:16.966Z,20.80
2023-03-17T04:20:44.107Z,21.00
2023-03-17T04:23:11.088Z,20.80
2023-03-17T04:25:38.277Z,21.10
2023-03-17T04:28:05.901Z,20.80
2023-03-17T04:30:33.321Z,21.00
2023-03-17T04:33:00.689Z,21.10
2023-03-17T04:35:28.086Z,21.20
2023-03-17T04:37:55.121Z,21.20
2023-03-17T04:40:22.252Z,21.40
2023-03-17T04:42:49.373Z,21.30
2023-03-17T04:45:17.032Z,21.50
2023-03-17T04:47:46.413Z,21.20
2023-03-17T04:50:14.719Z,21.20
2023-03-17T04:52:42.296Z,20.90
2023-03-17T04:55:10.011Z,21.10
2023-03-17T04:57:37.658Z,21.40
2023-03-17T05:00:06.486Z,21.30
2023-03-17T05:02:33.667Z,21.30
2023-03-17T05:05:01.187Z,21.10
2023-03-17T05:07:28.152Z,21.00
2023-03-17T05:09:55.737Z,20.90
2023-03-17T05:12:22.778Z,21.00
2023-03-17T05:14:49.752Z,20.60
2023-03-17T05:17:16.834Z,20.30
2023-03-17T05:19:44.066Z,20.80
2023-03-17T05:22:11.715Z,20.90
2023-03-17T05:24:38.775Z,20.90
2023-03-17T05:27:06.113Z,20.50
2023-03-17T05:29:33.099Z,20.70
2023-03-17T05:32:00.631Z,20.90
2023-03-17T05:34:27.618Z,21.50
2023-03-17T05:36:54.657Z,22.10
2023-03-17T05:39:21.771Z,21.50
2023-03-17T05:41:48.795Z,21.80
2023-03-17T05:44:16.578Z,22.20
2023-03-17T05:46:43.680Z,22.20
2023-03-17T05:49:10.653Z,22.00
2023-03-17T05:51:41.963Z,22.00
2023-03-17T05:54:09.087Z,22.10
2023-03-17T05:56:36.087Z,22.60
2023-03-17T05:59:03.217Z,22.80
2023-03-17T06:01:31.047Z,22.60
2023-03-17T06:03:58.209Z,22.30
2023-03-17T06:06:25.944Z,22.60
2023-03-17T06:08:53.316Z,22.60
2023-03-17T06:11:21.642Z,23.00
2023-03-17T06:13:49.058Z,23.00
2023-03-17T06:16:16.182Z,23.10
2023-03-17T06:18:43.463Z,22.80
2023-03-17T06:21:10.710Z,22.80
2023-03-17T06:23:38.009Z,22.80
2023-03-17T06:26:05.391Z,22.40
2023-03-17T06:28:32.680Z,22.50
2023-03-17T06:30:59.919Z,22.30
2023-03-17T06:33:27.401Z,22.50
2023-03-17T06:35:54.459Z,22.00
2023-03-17T06:38:22.167Z,21.90
2023-03-17T06:40:49.381Z,22.20
2023-03-17T06:43:17.723Z,22.20
2023-03-17T06:45:44.692Z,21.70
2023-03-17T06:48:12.394Z,21.30
2023-03-17T06:50:39.631Z,21.40
2023-03-17T06:53:07.401Z,21.50
2023-03-17T06:55:35.211Z,21.70
2023-03-17T06:58:03.206Z,21.70
2023-03-17T07:00:30.558Z,21.30
2023-03-17T07:02:58.150Z,21.10
2023-03-17T07:05:25.534Z,21.10
2023-03-17T07:07:52.587Z,21.40
2023-03-17T07:10:19.768Z,21.00
2023-03-17T07:12:47.208Z,21.20
2023-03-17T07:15:14.848Z,21.00
2023-03-17T07:17:42.248Z,20.60
2023-03-17T07:20:11.795Z,20.90
2023-03-17T07:22:38.866Z,21.40
2023-03-17T07:25:07.081Z,21.10
2023-03-17T07:27:35.017Z,21.10
2023-03-17T07:30:05.253Z,21.00
2023-03-17T07:32:32.891Z,21.00
2023-03-17T07:35:00.160Z,21.00
2023-03-17T07:37:27.402Z,21.10
2023-03-17T07:39:54.440Z,21.40
2023-03-17T07:42:21.964Z,21.10
2023-03-17T07:44:49.305Z,20.90
2023-03-17T07:47:16.613Z,21.20
2023-03-17T07:49:44.104Z,21.00
2023-03-17T07:52:12.694Z,21.00
2023-03-17T07:54:43.104Z,21.40
2023-03-17T07:57:10.762Z,21.20
2023-03-17T07:59:38.414Z,20.90
2023-03-17T08:02:05.688Z,21.10
2023-03-17T08:04:32.699Z,20.90
2023-03-17T08:06:59.738Z,20.80
2023-03-17T08:09:27.262Z,20.90
2023-03-17T08:11:54.312Z,20.90
2023-03-17T08:14:27.318Z,20.90
2023-03-17T08:16:54.455Z,20.60
2023-03-17T08:19:22.225Z,20.60
2023-03-17T08:21:50.085Z,21.20
2023-03-17T08:24:17.657Z,21.30
2023-03-17T08:26:49.428Z,20.70
2023-03-17T08:29:16.574Z,20.90
2023-03-17T08:31:46.338Z,20.70
2023-03-17T08:34:13.618Z,20.40
2023-03-17T08:36:40.562Z,20.40
2023-03-17T08:39:10.538Z,20.50
2023-03-17T08:41:38.698Z,20.60
2023-03-17T08:44:06.164Z,20.10
2023-03-17T08:46:33.676Z,19.80
2023-03-17T08:49:02.008Z,19.90
2023-03-17T08:51:32.170Z,19.20
2023-03-17T08:53:59.993Z,19.20
2023-03-17T08:56:27.818Z,19.10
2023-03-17T08:58:55.244Z,18.70
2023-03-17T09:01:24.459Z,19.10
2023-03-17T09:03:54.816Z,18.70
2023-03-17T09:06:22.461Z,19.00
2023-03-17T09:08:55.497Z,18.90
2023-03-17T09:11:26.946Z,19.10
2023-03-17T09:13:54.590Z,19.00
2023-03-17T09:16:25.540Z,18.60
2023-03-17T09:18:53.021Z,18.50
2023-03-17T09:21:21.378Z,18.40
2023-03-17T09:23:48.933Z,18.30
2023-03-17T09:26:16.590Z,18.60
2023-03-17T09:28:43.772Z,18.80
2023-03-17T09:31:12.556Z,18.70
2023-03-17T09:33:41.363Z,18.70
2023-03-17T09:36:10.505Z,18.70
2023-03-17T09:38:38.006Z,18.30
2023-03-17T09:41:18.845Z,18.50
2023-03-17T09:44:12.749Z,18.70
2023-03-17T09:46:54.963Z,17.80
2023-03-17T09:49:25.389Z,18.10
2023-03-17T09:51:53.303Z,17.60
2023-03-17T09:54:37.985Z,17.80
2023-03-17T09:57:16.493Z,18.30
2023-03-17T09:59:47.515Z,18.30
2023-03-17T10:02:23.567Z,18.30
2023-03-17T10:04:51.786Z,18.30
2023-03-17T10:07:41.983Z,18.60
2023-03-17T10:10:20.728Z,18.90
2023-03-17T10:13:15.096Z,18.50
2023-03-17T10:16:09.933Z,18.10
2023-03-17T10:18:44.482Z,18.10
2023-03-17T10:21:18.023Z,17.30
2023-03-17T10:23:45.915Z,17.60
2023-03-17T10:26:40.678Z,17.30
2023-03-17T10:29:17.648Z,16.90
2023-03-17T10:31:45.016Z,17.80
2023-03-17T10:34:15.049Z,16.90
2023-03-17T10:36:46.008Z,16.70
2023-03-17T10:39:19.921Z,16.90
2023-03-17T10:42:00.539Z,16.60
2023-03-17T10:44:36.920Z,16.40
2023-03-17T10:47:04.430Z,16.20
2023-03-17T10:49:38.372Z,16.00
2023-03-17T10:52:16.432Z,16.00
2023-03-17T10:54:48.454Z,16.00
2023-03-17T10:57:16.035Z,15.50
2023-03-17T10:59:47.990Z,15.50
2023-03-17T11:02:28.249Z,15.50
2023-03-17T11:05:20.556Z,15.90
2023-03-17T11:07:47.935Z,15.60
2023-03-17T11:10:21.183Z,15.40
2023-03-17T11:12:54.542Z,14.90
2023-03-17T11:15:22.820Z,14.70
2023-03-17T11:17:49.863Z,14.70
2023-03-17T11:20:24.864Z,14.90
2023-03-17T11:23:22.568Z,14.80
2023-03-17T11:26:14.885Z,14.50
2023-03-17T11:28:50.236Z,14.40
2023-03-17T11:31:31.177Z,14.50
2023-03-17T11:34:21.205Z,14.50
2023-03-17T11:37:18.913Z,14.90
2023-03-17T11:40:20.727Z,14.50
2023-03-17T11:43:20.791Z,14.10
2023-03-17T11:46:09.658Z,14.10
2023-03-17T11:48:57.259Z,13.90
2023-03-17T11:51:43.603Z,13.40
2023-03-17T11:54:26.705Z,13.60
2023-03-17T11:57:02.088Z,13.50
2023-03-17T11:59:59.746Z,13.40
2023-03-17T12:02:46.234Z,13.90
2023-03-17T12:05:30.173Z,13.70
2023-03-17T12:08:06.125Z,13.40
2023-03-17T12:10:52.730Z,13.50
2023-03-17T12:13:43.321Z,13.60
2023-03-17T12:16:23.089Z,13.30
2023-03-17T12:19:02.648Z,13.10
2023-03-17T12:21:39.003Z,13.00
2023-03-17T12:24:43.987Z,13.40
2023-03-17T12:27:23.368Z,13.70
2023-03-17T12:30:03.328Z,13.10
2023-03-17T12:33:20.409Z,13.30
2023-03-17T12:35:47.938Z,13.30
2023-03-17T12:38:19.576Z,13.00
2023-03-17T12:41:31.715Z,13.60
2023-03-17T12:44:40.156Z,13.90
2023-03-17T12:47:17.382Z,13.80
2023-03-17T12:50:23.464Z,13.90
2023-03-17T12:52:56.332Z,13.50
2023-03-17T12:55:27.030Z,12.80
2023-03-17T12:58:25.907Z,12.60
2023-03-17T13:01:17.753Z,13.10
2023-03-17T13:04:12.641Z,13.60
2023-03-17T13:06:58.249Z,13.90
2023-03-17T13:09:43.328Z,14.20
2023-03-17T13:12:44.772Z,14.20
2023-03-17T13:15:41.204Z,14.30
2023-03-17T13:18:18.673Z,14.60
2023-03-17T13:20:59.423Z,13.40
2023-03-17T13:23:58.016Z,13.00
2023-03-17T13:26:52.464Z,13.90
2023-03-17T13:29:38.734Z,14.50
2023-03-17T13:32:27.093Z,14.00
2023-03-17T13:35:19.150Z,14.00
2023-03-17T13:38:04.860Z,14.00
2023-03-17T13:41:00.622Z,14.00
2023-03-17T13:43:44.677Z,14.30
2023-03-17T13:46:27.319Z,14.00
2023-03-17T13:48:56.699Z,14.40
2023-03-17T13:51:27.634Z,14.20
2023-03-17T13:53:58.135Z,14.10
2023-03-17T13:56:48.626Z,14.60
2023-03-17T13:59:37.041Z,14.60
2023-03-17T14:02:17.287Z,14.40
2023-03-17T14:04:55.625Z,14.80
2023-03-17T14:07:26.812Z,15.00
2023-03-17T14:10:00.484Z,14.80
2023-03-17T14:12:55.120Z,15.00
2023-03-17T14:15:37.906Z,15.10
2023-03-17T14:18:18.498Z,14.90
2023-03-17T14:21:01.045Z,15.00
2023-03-17T14:23:29.394Z,15.20
2023-03-17T14:25:58.051Z,15.20
2023-03-17T14:28:38.406Z,15.70
2023-03-17T14:31:08.183Z,15.90
2023-03-17T14:33:41.225Z,15.50
2023-03-17T14:36:14.148Z,15.90
2023-03-17T14:38:48.720Z,15.70
2023-03-17T14:41:17.506Z,15.90
2023-03-17T14:43:45.665Z,16.30
2023-03-17T14:46:22.805Z,16.70
2023-03-17T14:49:02.294Z,16.80
2023-03-17T14:51:40.775Z,17.10
2023-03-17T14:54:32.467Z,17.20
2023-03-17T14:57:08.844Z,17.40
2023-03-17T14:59:43.655Z,17.60
2023-03-17T15:02:23.471Z,17.10
2023-03-17T15:04:58.888Z,17.50
2023-03-17T15:07:37.263Z,17.40
2023-03-17T15:10:07.380Z,17.60
2023-03-17T15:12:34.429Z,17.70
2023-03-17T15:15:06.650Z,17.60
2023-03-17T15:17:36.525Z,17.60
2023-03-17T15:20:06.927Z,17.60
2023-03-17T15:22:42.254Z,17.50
2023-03-17T15:25:18.200Z,17.20
2023-03-17T15:27:46.348Z,17.60
2023-03-17T15:30:14.616Z,17.50
2023-03-17T15:32:41.665Z,17.40
2023-03-17T15:35:12.602Z,17.50
2023-03-17T15:37:40.580Z,18.00
2023-03-17T15:40:09.465Z,17.90
2023-03-17T15:42:39.526Z,17.40
2023-03-17T15:45:07.210Z,17.20
2023-03-17T15:47:37.424Z,17.60
2023-03-17T15:50:37.047Z,17.90
2023-03-17T15:53:04.096Z,18.20
2023-03-17T15:55:31.525Z,17.90
2023-03-17T15:57:59.525Z,17.60
2023-03-17T16:00:29.905Z,17.50
2023-03-17T16:03:01.543Z,17.80
2023-03-17T16:05:32.902Z,18.10
2023-03-17T16:07:59.892Z,18.00
2023-03-17T16:10:30.586Z,17.90
2023-03-17T16:12:58.560Z,18.00
2023-03-17T16:15:31.872Z,18.30
2023-03-17T16:18:02.596Z,18.40
2023-03-17T16:20:36.263Z,17.90
2023-03-17T16:23:27.693Z,18.10
2023-03-17T16:25:59.240Z,18.20
2023-03-17T16:28:32.923Z,18.10
2023-03-17T16:31:02.040Z,18.20
2023-03-17T16:33:33.883Z,18.20
2023-03-17T16:36:01.644Z,18.00
2023-03-17T16:38:31.615Z,18.00
2023-03-17T16:41:13.478Z,18.10
2023-03-17T16:43:44.310Z,17.90
2023-03-17T16:46:12.422Z,18.40
2023-03-17T16:48:39.585Z,18.50
2023-03-17T16:51:07.781Z,18.40
2023-03-17T16:53:35.801Z,18.80
2023-03-17T16:56:03.409Z,19.00
2023-03-17T16:58:34.669Z,18.80
2023-03-17T17:01:06.924Z,18.70
2023-03-17T17:03:37.794Z,18.90
2023-03-17T17:06:07.233Z,18.80
2023-03-17T17:08:34.320Z,18.60
2023-03-17T17:11:01.299Z,19.10
2023-03-17T17:13:28.655Z,19.30
2023-03-17T17:15:56.267Z,18.90
2023-03-17T17:18:24.738Z,19.10
2023-03-17T17:20:53.283Z,19.70
2023-03-17T17:23:26.224Z,19.80
2023-03-17T17:25:54.079Z,19.40
2023-03-17T17:28:23.510Z,19.80
2023-03-17T17:30:52.068Z,19.90
2023-03-17T17:33:19.937Z,20.00
2023-03-17T17:35:48.141Z,19.80
2023-03-17T17:38:22.192Z,20.10
2023-03-17T17:40:49.963Z,19.90
2023-03-17T17:43:18.308Z,19.90
2023-03-17T17:45:50.402Z,19.40
2023-03-17T17:48:19.533Z,19.50
2023-03-17T17:50:46.730Z,19.90
2023-03-17T17:53:15.041Z,19.40
2023-03-17T17:55:44.889Z,20.50
2023-03-17T17:58:17.344Z,20.40
2023-03-17T18:00:44.570Z,19.70
2023-03-17T18:03:11.669Z,19.70
2023-03-17T18:05:39.213Z,20.40
2023-03-17T18:08:06.743Z,20.10
2023-03-17T18:10:34.654Z,20.10
2023-03-17T18:13:01.978Z,20.40
2023-03-17T18:15:29.278Z,20.20
2023-03-17T18:17:56.946Z,20.70
2023-03-17T18:20:24.459Z,21.20
2023-03-17T18:22:52.617Z,20.70
2023-03-17T18:25:20.321Z,20.30
2023-03-17T18:27:48.323Z,20.10
2023-03-17T18:30:23.499Z,20.50
2023-03-17T18:32:55.105Z,20.60
2023-03-17T18:35:24.183Z,20.80
2023-03-17T18:37:52.004Z,20.80
2023-03-17T18:40:19.583Z,20.50
2023-03-17T18:42:47.061Z,20.40
2023-03-17T18:45:14.988Z,20.60
2023-03-17T18:47:42.319Z,20.80
2023-03-17T18:50:11.888Z,20.60
2023-03-17T18:52:41.200Z,20.50
2023-03-17T18:55:09.990Z,20.30
2023-03-17T18:57:37.338Z,19.80
2023-03-17T19:00:06.139Z,19.50
2023-03-17T19:02:33.434Z,20.00
2023-03-17T19:05:00.945Z,19.60
2023-03-17T19:07:28.064Z,19.80
2023-03-17T19:09:55.181Z,20.10
2023-03-17T19:12:22.277Z,20.60
2023-03-17T19:14:49.467Z,20.30
2023-03-17T19:17:17.058Z,20.20
2023-03-17T19:19:44.046Z,20.30
2023-03-17T19:22:11.178Z,20.50
2023-03-17T19:24:38.786Z,20.60
2023-03-17T19:27:06.104Z,20.90
2023-03-17T19:29:33.453Z,20.90
2023-03-17T19:32:00.673Z,20.90
2023-03-17T19:34:27.633Z,20.50
2023-03-17T19:36:54.604Z,20.80
2023-03-17T19:39:23.068Z,20.90
2023-03-17T19:41:55.209Z,21.20
2023-03-17T19:44:22.691Z,21.30
2023-03-17T19:46:49.997Z,21.50
2023-03-17T19:49:17.344Z,21.70
2023-03-17T19:51:44.563Z,21.70
2023-03-17T19:54:12.905Z,21.50
2023-03-17T19:56:40.148Z,21.80
2023-03-17T19:59:09.161Z,21.60
2023-03-17T20:01:38.060Z,21.40
2023-03-17T20:04:07.147Z,21.20
2023-03-17T20:06:34.861Z,20.80
2023-03-17T20:09:04.289Z,20.80
2023-03-17T20:11:34.098Z,20.70
2023-03-17T20:14:02.479Z,20.80
2023-03-17T20:16:35.137Z,20.70
2023-03-17T20:19:03.722Z,20.90
2023-03-17T20:21:31.447Z,20.90
2023-03-17T20:23:59.082Z,21.20
2023-03-17T20:26:26.460Z,21.00
2023-03-17T20:28:53.917Z,21.20
2023-03-17T20:31:21.205Z,21.40
2023-03-17T20:33:48.491Z,21.00
2023-03-17T20:36:15.460Z,20.50
2023-03-17T20:38:43.842Z,20.40
2023-03-17T20:41:14.735Z,20.00
2023-03-17T20:43:42.311Z,20.30
2023-03-17T20:46:17.526Z,20.80
2023-03-17T20:48:47.813Z,20.40
2023-03-17T20:51:17.044Z,20.40
2023-03-17T20:53:46.506Z,20.50
2023-03-17T20:56:19.945Z,21.00
2023-03-17T20:58:48.635Z,20.90
2023-03-17T21:01:20.761Z,20.80
2023-03-17T21:03:48.773Z,20.50
2023-03-17T21:06:16.432Z,20.40
2023-03-17T21:08:43.555Z,20.20
2023-03-17T21:11:16.643Z,20.60
2023-03-17T21:13:44.362Z,20.70
2023-03-17T21:16:17.463Z,20.90
2023-03-17T21:18:44.853Z,20.70
2023-03-17T21:21:11.878Z,21.30
2023-03-17T21:23:39.076Z,21.70
2023-03-17T21:26:06.259Z,21.20
2023-03-17T21:28:33.334Z,21.40
2023-03-17T21:31:02.098Z,20.90
2023-03-17T21:33:29.556Z,20.50
2023-03-17T21:35:58.990Z,20.30
2023-03-17T21:38:28.260Z,20.90
2023-03-17T21:40:56.924Z,20.80
2023-03-17T21:43:24.555Z,20.30
2023-03-17T21:45:51.955Z,20.40
2023-03-17T21:48:19.074Z,20.60
2023-03-17T21:50:48.943Z,20.70
2023-03-17T21:53:15.970Z,20.40
2023-03-17T21:55:43.035Z,20.70
2023-03-17T21:58:10.012Z,20.50
2023-03-17T22:00:45.057Z,20.60
2023-03-17T22:03:13.293Z,20.70
2023-03-17T22:05:40.381Z,20.50
2023-03-17T22:08:07.458Z,20.50
2023-03-17T22:10:34.523Z,20.50
2023-03-17T22:13:01.488Z,20.70
2023-03-17T22:15:29.238Z,20.80
2023-03-17T22:17:57.772Z,20.60
2023-03-17T22:20:24.826Z,20.60
2023-03-17T22:22:51.802Z,20.50
2023-03-17T22:25:18.841Z,20.50
2023-03-17T22:27:45.939Z,20.30
2023-03-17T22:30:13.140Z,20.40
2023-03-17T22:32:40.292Z,20.10
2023-03-17T22:35:07.900Z,20.40
2023-03-17T22:37:35.016Z,20.20
2023-03-17T22:40:06.509Z,20.30
2023-03-17T22:42:33.841Z,20.40
2023-03-17T22:45:00.897Z,20.50
2023-03-17T22:47:27.985Z,20.50
2023-03-17T22:49:54.990Z,20.30
2023-03-17T22:52:21.983Z,20.20
2023-03-17T22:54:49.025Z,20.40
2023-03-17T22:57:16.145Z,19.70
2023-03-17T22:59:43.176Z,19.90
2023-03-17T23:02:11.410Z,19.80
2023-03-17T23:04:38.811Z,19.70
2023-03-17T23:07:05.878Z,19.40
2023-03-17T23:09:33.198Z,20.10
2023-03-17T23:12:00.785Z,19.70
2023-03-17T23:14:28.102Z,20.30
2023-03-17T23:16:55.569Z,20.40
2023-03-17T23:19:22.726Z,20.50
2023-03-17T23:21:49.786Z,20.20
2023-03-17T23:24:17.400Z,20.10
2023-03-17T23:26:44.663Z,20.20
2023-03-17T23:29:11.845Z,20.20
2023-03-17T23:31:39.694Z,20.00
2023-03-17T23:34:07.955Z,20.10
2023-03-17T23:36:38.595Z,19.80
2023-03-17T23:39:06.044Z,20.10
2023-03-17T23:41:33.432Z,20.60
2023-03-17T23:44:00.504Z,20.50
2023-03-17T23:46:29.159Z,20.00
2023-03-17T23:48:56.426Z,19.90
2023-03-17T23:51:24.056Z,20.00
2023-03-17T23:53:52.135Z,19.80
2023-03-17T23:56:20.733Z,20.00
2023-03-17T23:58:49.044Z,20.00
